EGAA/BFS METAR and TAF weather

Enter ICAO airport designator
Station Type Date Time Source
EGAA METAR 2020/12/06 01:20 UTC NOAA

EGAA 060120Z 09003KT 8000 FEW036 M01/M01 Q1003


Station Type Date Time Source
EGAA Decoded METAR 2020/12/06 01:20 UTC NOAA

Belfast / Aldergrove Airport, United Kingdom (EGAA) 54-39N 006-13W 0M
Dec 05, 2020 - 08:20 PM EST / 2020.12.06 0120 UTC
Wind: from the E (090 degrees) at 3 MPH (3 KT):0
Visibility: 4 mile(s):0
Sky conditions: mostly clear
Temperature: 30 F (-1 C)
Dew Point: 30 F (-1 C)
Relative Humidity: 100%
Pressure (altimeter): 29.62 in. Hg (1003 hPa)
ob: EGAA 060120Z 09003KT 8000 FEW036 M01/M01 Q1003
cycle: 1

Station Type Date Time Source
EGAA TAF 2020/12/05 18:06 UTC NOAA

TAF TAF EGAA 051657Z 0518/0618 VRB02KT CAVOK PROB30 0520/0603 0300 FG FZFG BKN000
BECMG 0603/0607 0300 FZFG FG BKN000 PROB30
TEMPO 0613/0618 2000 BR SCT001

Example: see airport list